sensor_id;sensor_type;location;lat;lon;timestamp;P1;durP1;ratioP1;P2;durP2;ratioP2
22357;SDS011;11346;50.150;8.150;2023-04-24T00:01:16;1.97;;;1.70;;
22357;SDS011;11346;50.150;8.150;2023-04-24T00:03:44;2.30;;;2.10;;
22357;SDS011;11346;50.150;8.150;2023-04-24T00:06:11;3.03;;;1.97;;
22357;SDS011;11346;50.150;8.150;2023-04-24T00:08:38;2.53;;;1.70;;
22357;SDS011;11346;50.150;8.150;2023-04-24T00:11:05;3.47;;;2.07;;
22357;SDS011;11346;50.150;8.150;2023-04-24T00:13:32;2.03;;;1.83;;
22357;SDS011;11346;50.150;8.150;2023-04-24T00:16:01;1.90;;;1.70;;
22357;SDS011;11346;50.150;8.150;2023-04-24T00:18:28;4.33;;;2.10;;
22357;SDS011;11346;50.150;8.150;2023-04-24T00:20:55;2.47;;;2.27;;
22357;SDS011;11346;50.150;8.150;2023-04-24T00:23:22;3.03;;;1.90;;
22357;SDS011;11346;50.150;8.150;2023-04-24T00:25:49;2.27;;;2.07;;
22357;SDS011;11346;50.150;8.150;2023-04-24T00:28:16;2.30;;;2.20;;
22357;SDS011;11346;50.150;8.150;2023-04-24T00:30:43;2.43;;;2.20;;
22357;SDS011;11346;50.150;8.150;2023-04-24T00:33:11;5.03;;;2.33;;
22357;SDS011;11346;50.150;8.150;2023-04-24T00:35:38;3.40;;;2.30;;
22357;SDS011;11346;50.150;8.150;2023-04-24T00:38:05;5.37;;;2.43;;
22357;SDS011;11346;50.150;8.150;2023-04-24T00:40:32;2.40;;;2.20;;
22357;SDS011;11346;50.150;8.150;2023-04-24T00:42:59;2.60;;;2.40;;
22357;SDS011;11346;50.150;8.150;2023-04-24T00:45:26;4.10;;;3.40;;
22357;SDS011;11346;50.150;8.150;2023-04-24T00:47:56;3.27;;;2.97;;
22357;SDS011;11346;50.150;8.150;2023-04-24T00:50:24;4.27;;;2.90;;
22357;SDS011;11346;50.150;8.150;2023-04-24T00:52:52;2.27;;;2.17;;
22357;SDS011;11346;50.150;8.150;2023-04-24T00:55:19;2.47;;;2.27;;
22357;SDS011;11346;50.150;8.150;2023-04-24T00:57:47;2.37;;;2.17;;
22357;SDS011;11346;50.150;8.150;2023-04-24T01:00:14;2.50;;;2.30;;
22357;SDS011;11346;50.150;8.150;2023-04-24T01:02:42;6.23;;;2.50;;
22357;SDS011;11346;50.150;8.150;2023-04-24T01:05:10;2.17;;;1.97;;
22357;SDS011;11346;50.150;8.150;2023-04-24T01:07:39;2.30;;;2.10;;
22357;SDS011;11346;50.150;8.150;2023-04-24T01:10:09;5.97;;;2.33;;
22357;SDS011;11346;50.150;8.150;2023-04-24T01:12:36;2.50;;;2.30;;
22357;SDS011;11346;50.150;8.150;2023-04-24T01:15:04;2.40;;;2.20;;
22357;SDS011;11346;50.150;8.150;2023-04-24T01:17:31;5.37;;;2.33;;
22357;SDS011;11346;50.150;8.150;2023-04-24T01:19:58;2.77;;;2.03;;
22357;SDS011;11346;50.150;8.150;2023-04-24T01:22:27;2.50;;;2.30;;
22357;SDS011;11346;50.150;8.150;2023-04-24T01:24:54;2.13;;;2.00;;
22357;SDS011;11346;50.150;8.150;2023-04-24T01:27:21;4.00;;;2.47;;
22357;SDS011;11346;50.150;8.150;2023-04-24T01:29:48;5.53;;;2.33;;
22357;SDS011;11346;50.150;8.150;2023-04-24T01:32:16;3.10;;;1.93;;
22357;SDS011;11346;50.150;8.150;2023-04-24T01:34:44;2.37;;;2.00;;
22357;SDS011;11346;50.150;8.150;2023-04-24T01:37:12;3.53;;;2.30;;
22357;SDS011;11346;50.150;8.150;2023-04-24T01:39:40;1.80;;;1.70;;
22357;SDS011;11346;50.150;8.150;2023-04-24T01:42:07;2.40;;;1.90;;
22357;SDS011;11346;50.150;8.150;2023-04-24T01:44:34;1.80;;;1.37;;
22357;SDS011;11346;50.150;8.150;2023-04-24T01:47:02;3.30;;;1.93;;
22357;SDS011;11346;50.150;8.150;2023-04-24T01:49:29;2.10;;;2.00;;
22357;SDS011;11346;50.150;8.150;2023-04-24T01:51:56;2.20;;;2.00;;
22357;SDS011;11346;50.150;8.150;2023-04-24T01:54:23;1.50;;;1.43;;
22357;SDS011;11346;50.150;8.150;2023-04-24T01:56:51;1.83;;;1.40;;
22357;SDS011;11346;50.150;8.150;2023-04-24T01:59:18;1.70;;;1.60;;
22357;SDS011;11346;50.150;8.150;2023-04-24T02:01:47;1.80;;;1.40;;
22357;SDS011;11346;50.150;8.150;2023-04-24T02:04:14;4.57;;;1.30;;
22357;SDS011;11346;50.150;8.150;2023-04-24T02:06:41;3.00;;;1.50;;
22357;SDS011;11346;50.150;8.150;2023-04-24T02:09:08;1.60;;;1.53;;
22357;SDS011;11346;50.150;8.150;2023-04-24T02:11:35;1.43;;;1.33;;
22357;SDS011;11346;50.150;8.150;2023-04-24T02:14:04;1.30;;;1.30;;
22357;SDS011;11346;50.150;8.150;2023-04-24T02:16:31;6.10;;;1.40;;
22357;SDS011;11346;50.150;8.150;2023-04-24T02:18:58;2.83;;;1.30;;
22357;SDS011;11346;50.150;8.150;2023-04-24T02:21:25;2.13;;;1.47;;
22357;SDS011;11346;50.150;8.150;2023-04-24T02:23:53;1.37;;;1.27;;
22357;SDS011;11346;50.150;8.150;2023-04-24T02:26:20;1.70;;;1.60;;
22357;SDS011;11346;50.150;8.150;2023-04-24T02:28:47;1.07;;;1.07;;
22357;SDS011;11346;50.150;8.150;2023-04-24T02:31:16;2.60;;;1.80;;
22357;SDS011;11346;50.150;8.150;2023-04-24T02:33:43;4.83;;;1.90;;
22357;SDS011;11346;50.150;8.150;2023-04-24T02:36:10;2.70;;;1.60;;
22357;SDS011;11346;50.150;8.150;2023-04-24T02:38:38;1.73;;;1.63;;
22357;SDS011;11346;50.150;8.150;2023-04-24T02:41:05;1.70;;;1.60;;
22357;SDS011;11346;50.150;8.150;2023-04-24T02:43:32;1.60;;;1.50;;
22357;SDS011;11346;50.150;8.150;2023-04-24T02:45:59;1.93;;;1.57;;
22357;SDS011;11346;50.150;8.150;2023-04-24T02:48:28;1.70;;;1.60;;
22357;SDS011;11346;50.150;8.150;2023-04-24T02:50:55;1.87;;;1.70;;
22357;SDS011;11346;50.150;8.150;2023-04-24T02:53:22;2.03;;;1.80;;
22357;SDS011;11346;50.150;8.150;2023-04-24T02:55:49;1.80;;;1.70;;
22357;SDS011;11346;50.150;8.150;2023-04-24T02:58:16;1.80;;;1.70;;
22357;SDS011;11346;50.150;8.150;2023-04-24T03:00:44;2.00;;;1.80;;
22357;SDS011;11346;50.150;8.150;2023-04-24T03:03:12;1.80;;;1.60;;
22357;SDS011;11346;50.150;8.150;2023-04-24T03:05:40;2.73;;;1.73;;
22357;SDS011;11346;50.150;8.150;2023-04-24T03:08:07;1.90;;;1.80;;
22357;SDS011;11346;50.150;8.150;2023-04-24T03:10:35;1.93;;;1.70;;
22357;SDS011;11346;50.150;8.150;2023-04-24T03:13:02;1.60;;;1.60;;
22357;SDS011;11346;50.150;8.150;2023-04-24T03:15:29;1.60;;;1.50;;
22357;SDS011;11346;50.150;8.150;2023-04-24T03:17:56;1.70;;;1.60;;
22357;SDS011;11346;50.150;8.150;2023-04-24T03:20:23;2.13;;;1.87;;
22357;SDS011;11346;50.150;8.150;2023-04-24T03:22:52;2.50;;;1.87;;
22357;SDS011;11346;50.150;8.150;2023-04-24T03:25:19;2.00;;;1.80;;
22357;SDS011;11346;50.150;8.150;2023-04-24T03:27:46;1.80;;;1.70;;
22357;SDS011;11346;50.150;8.150;2023-04-24T03:30:13;1.80;;;1.70;;
22357;SDS011;11346;50.150;8.150;2023-04-24T03:32:40;2.53;;;1.77;;
22357;SDS011;11346;50.150;8.150;2023-04-24T03:35:07;1.90;;;1.80;;
22357;SDS011;11346;50.150;8.150;2023-04-24T03:37:34;1.80;;;1.70;;
22357;SDS011;11346;50.150;8.150;2023-04-24T03:40:03;2.17;;;1.97;;
22357;SDS011;11346;50.150;8.150;2023-04-24T03:42:30;3.53;;;2.00;;
22357;SDS011;11346;50.150;8.150;2023-04-24T03:44:58;1.80;;;1.70;;
22357;SDS011;11346;50.150;8.150;2023-04-24T03:47:25;1.93;;;1.70;;
22357;SDS011;11346;50.150;8.150;2023-04-24T03:49:52;2.00;;;1.90;;
22357;SDS011;11346;50.150;8.150;2023-04-24T03:52:20;2.17;;;2.07;;
22357;SDS011;11346;50.150;8.150;2023-04-24T03:54:47;2.30;;;2.10;;
22357;SDS011;11346;50.150;8.150;2023-04-24T03:57:16;3.47;;;2.00;;
22357;SDS011;11346;50.150;8.150;2023-04-24T03:59:43;2.40;;;2.10;;
22357;SDS011;11346;50.150;8.150;2023-04-24T04:02:10;2.47;;;2.10;;
22357;SDS011;11346;50.150;8.150;2023-04-24T04:04:37;2.03;;;1.90;;
22357;SDS011;11346;50.150;8.150;2023-04-24T04:07:04;2.40;;;2.20;;
22357;SDS011;11346;50.150;8.150;2023-04-24T04:09:32;3.83;;;2.17;;
22357;SDS011;11346;50.150;8.150;2023-04-24T04:11:59;3.00;;;2.10;;
22357;SDS011;11346;50.150;8.150;2023-04-24T04:14:27;2.40;;;2.20;;
22357;SDS011;11346;50.150;8.150;2023-04-24T04:16:54;2.90;;;2.17;;
22357;SDS011;11346;50.150;8.150;2023-04-24T04:19:21;4.53;;;2.40;;
22357;SDS011;11346;50.150;8.150;2023-04-24T04:21:49;2.20;;;2.00;;
22357;SDS011;11346;50.150;8.150;2023-04-24T04:24:18;6.17;;;2.00;;
22357;SDS011;11346;50.150;8.150;2023-04-24T04:26:47;2.40;;;2.20;;
22357;SDS011;11346;50.150;8.150;2023-04-24T04:29:16;2.50;;;1.80;;
22357;SDS011;11346;50.150;8.150;2023-04-24T04:31:44;2.20;;;2.10;;
22357;SDS011;11346;50.150;8.150;2023-04-24T04:34:11;1.93;;;1.83;;
22357;SDS011;11346;50.150;8.150;2023-04-24T04:36:39;2.20;;;2.03;;
22357;SDS011;11346;50.150;8.150;2023-04-24T04:39:06;4.03;;;2.30;;
22357;SDS011;11346;50.150;8.150;2023-04-24T04:41:33;2.00;;;1.90;;
22357;SDS011;11346;50.150;8.150;2023-04-24T04:44:01;2.57;;;2.23;;
22357;SDS011;11346;50.150;8.150;2023-04-24T04:46:29;2.40;;;2.20;;
22357;SDS011;11346;50.150;8.150;2023-04-24T04:48:58;2.23;;;2.13;;
22357;SDS011;11346;50.150;8.150;2023-04-24T04:51:26;2.20;;;2.10;;
22357;SDS011;11346;50.150;8.150;2023-04-24T04:53:53;2.10;;;2.00;;
22357;SDS011;11346;50.150;8.150;2023-04-24T04:56:20;3.57;;;2.40;;
22357;SDS011;11346;50.150;8.150;2023-04-24T04:58:47;2.40;;;2.20;;
22357;SDS011;11346;50.150;8.150;2023-04-24T05:01:14;3.00;;;2.53;;
22357;SDS011;11346;50.150;8.150;2023-04-24T05:03:42;2.60;;;2.40;;
22357;SDS011;11346;50.150;8.150;2023-04-24T05:06:10;2.87;;;2.43;;
22357;SDS011;11346;50.150;8.150;2023-04-24T05:08:37;2.40;;;2.20;;
22357;SDS011;11346;50.150;8.150;2023-04-24T05:11:04;2.77;;;2.27;;
22357;SDS011;11346;50.150;8.150;2023-04-24T05:13:32;3.57;;;2.60;;
22357;SDS011;11346;50.150;8.150;2023-04-24T05:15:59;2.63;;;2.43;;
22357;SDS011;11346;50.150;8.150;2023-04-24T05:18:26;3.53;;;2.50;;
22357;SDS011;11346;50.150;8.150;2023-04-24T05:20:53;3.67;;;2.77;;
22357;SDS011;11346;50.150;8.150;2023-04-24T05:23:22;2.70;;;2.50;;
22357;SDS011;11346;50.150;8.150;2023-04-24T05:25:49;3.60;;;2.73;;
22357;SDS011;11346;50.150;8.150;2023-04-24T05:28:16;4.33;;;3.20;;
22357;SDS011;11346;50.150;8.150;2023-04-24T05:30:43;4.77;;;3.27;;
22357;SDS011;11346;50.150;8.150;2023-04-24T05:33:10;5.90;;;3.47;;
22357;SDS011;11346;50.150;8.150;2023-04-24T05:35:39;5.10;;;4.00;;
22357;SDS011;11346;50.150;8.150;2023-04-24T05:38:10;4.00;;;3.53;;
22357;SDS011;11346;50.150;8.150;2023-04-24T05:40:39;4.37;;;3.97;;
22357;SDS011;11346;50.150;8.150;2023-04-24T05:43:06;5.10;;;4.37;;
22357;SDS011;11346;50.150;8.150;2023-04-24T05:45:33;5.17;;;3.70;;
22357;SDS011;11346;50.150;8.150;2023-04-24T05:48:01;4.17;;;3.77;;
22357;SDS011;11346;50.150;8.150;2023-04-24T05:50:28;6.27;;;3.83;;
22357;SDS011;11346;50.150;8.150;2023-04-24T05:52:55;4.57;;;4.00;;
22357;SDS011;11346;50.150;8.150;2023-04-24T05:55:23;8.87;;;4.60;;
22357;SDS011;11346;50.150;8.150;2023-04-24T05:57:51;4.57;;;4.07;;
22357;SDS011;11346;50.150;8.150;2023-04-24T06:00:19;6.57;;;4.50;;
22357;SDS011;11346;50.150;8.150;2023-04-24T06:02:46;5.87;;;4.77;;
22357;SDS011;11346;50.150;8.150;2023-04-24T06:05:13;7.47;;;4.50;;
22357;SDS011;11346;50.150;8.150;2023-04-24T06:07:40;6.40;;;4.77;;
22357;SDS011;11346;50.150;8.150;2023-04-24T06:10:08;7.70;;;4.80;;
22357;SDS011;11346;50.150;8.150;2023-04-24T06:12:35;5.37;;;4.53;;
22357;SDS011;11346;50.150;8.150;2023-04-24T06:15:04;5.30;;;4.57;;
22357;SDS011;11346;50.150;8.150;2023-04-24T06:17:32;4.77;;;4.17;;
22357;SDS011;11346;50.150;8.150;2023-04-24T06:19:59;4.70;;;4.20;;
22357;SDS011;11346;50.150;8.150;2023-04-24T06:22:26;5.73;;;4.43;;
22357;SDS011;11346;50.150;8.150;2023-04-24T06:24:53;4.90;;;4.00;;
22357;SDS011;11346;50.150;8.150;2023-04-24T06:27:20;5.13;;;4.57;;
22357;SDS011;11346;50.150;8.150;2023-04-24T06:29:47;7.03;;;4.73;;
22357;SDS011;11346;50.150;8.150;2023-04-24T06:32:20;5.47;;;4.43;;
22357;SDS011;11346;50.150;8.150;2023-04-24T06:34:47;5.17;;;4.30;;
22357;SDS011;11346;50.150;8.150;2023-04-24T06:37:14;4.27;;;3.87;;
22357;SDS011;11346;50.150;8.150;2023-04-24T06:39:42;8.53;;;4.07;;
22357;SDS011;11346;50.150;8.150;2023-04-24T06:42:09;5.60;;;4.50;;
22357;SDS011;11346;50.150;8.150;2023-04-24T06:44:36;6.23;;;3.57;;
22357;SDS011;11346;50.150;8.150;2023-04-24T06:47:05;3.87;;;3.47;;
22357;SDS011;11346;50.150;8.150;2023-04-24T06:49:34;4.90;;;3.90;;
22357;SDS011;11346;50.150;8.150;2023-04-24T06:52:02;5.53;;;3.50;;
22357;SDS011;11346;50.150;8.150;2023-04-24T06:54:29;4.50;;;3.63;;
22357;SDS011;11346;50.150;8.150;2023-04-24T06:56:56;3.60;;;3.30;;
22357;SDS011;11346;50.150;8.150;2023-04-24T06:59:23;6.27;;;3.63;;
22357;SDS011;11346;50.150;8.150;2023-04-24T07:01:50;3.37;;;3.07;;
22357;SDS011;11346;50.150;8.150;2023-04-24T07:04:17;3.47;;;3.17;;
22357;SDS011;11346;50.150;8.150;2023-04-24T07:06:46;3.50;;;3.20;;
22357;SDS011;11346;50.150;8.150;2023-04-24T07:09:14;4.50;;;3.00;;
22357;SDS011;11346;50.150;8.150;2023-04-24T07:11:43;3.67;;;3.27;;
22357;SDS011;11346;50.150;8.150;2023-04-24T07:14:10;4.07;;;2.93;;
22357;SDS011;11346;50.150;8.150;2023-04-24T07:16:37;3.20;;;2.90;;
22357;SDS011;11346;50.150;8.150;2023-04-24T07:19:04;4.87;;;2.93;;
22357;SDS011;11346;50.150;8.150;2023-04-24T07:21:31;3.10;;;2.80;;
22357;SDS011;11346;50.150;8.150;2023-04-24T07:24:00;3.57;;;2.90;;
22357;SDS011;11346;50.150;8.150;2023-04-24T07:26:28;3.10;;;2.80;;
22357;SDS011;11346;50.150;8.150;2023-04-24T07:28:55;3.50;;;3.10;;
22357;SDS011;11346;50.150;8.150;2023-04-24T07:31:22;3.60;;;3.30;;
22357;SDS011;11346;50.150;8.150;2023-04-24T07:33:49;5.53;;;3.87;;
22357;SDS011;11346;50.150;8.150;2023-04-24T07:36:16;4.20;;;3.23;;
22357;SDS011;11346;50.150;8.150;2023-04-24T07:38:44;5.20;;;3.20;;
22357;SDS011;11346;50.150;8.150;2023-04-24T07:41:12;3.43;;;3.13;;
22357;SDS011;11346;50.150;8.150;2023-04-24T07:43:39;4.13;;;3.60;;
22357;SDS011;11346;50.150;8.150;2023-04-24T07:46:07;3.00;;;2.80;;
22357;SDS011;11346;50.150;8.150;2023-04-24T07:48:34;3.00;;;2.80;;
22357;SDS011;11346;50.150;8.150;2023-04-24T07:51:01;5.40;;;3.53;;
22357;SDS011;11346;50.150;8.150;2023-04-24T07:53:28;3.47;;;3.00;;
22357;SDS011;11346;50.150;8.150;2023-04-24T07:55:55;4.00;;;3.23;;
22357;SDS011;11346;50.150;8.150;2023-04-24T07:58:24;3.40;;;2.70;;
22357;SDS011;11346;50.150;8.150;2023-04-24T08:00:51;3.63;;;2.90;;
22357;SDS011;11346;50.150;8.150;2023-04-24T08:03:18;4.03;;;3.40;;
22357;SDS011;11346;50.150;8.150;2023-04-24T08:05:45;3.83;;;3.53;;
22357;SDS011;11346;50.150;8.150;2023-04-24T08:08:13;3.73;;;3.30;;
22357;SDS011;11346;50.150;8.150;2023-04-24T08:10:40;5.57;;;4.33;;
22357;SDS011;11346;50.150;8.150;2023-04-24T08:13:07;3.10;;;2.80;;
22357;SDS011;11346;50.150;8.150;2023-04-24T08:15:37;4.27;;;2.47;;
22357;SDS011;11346;50.150;8.150;2023-04-24T08:18:04;4.90;;;2.90;;
22357;SDS011;11346;50.150;8.150;2023-04-24T08:20:32;4.57;;;2.93;;
22357;SDS011;11346;50.150;8.150;2023-04-24T08:22:59;3.17;;;2.87;;
22357;SDS011;11346;50.150;8.150;2023-04-24T08:25:26;3.37;;;2.70;;
22357;SDS011;11346;50.150;8.150;2023-04-24T08:27:53;3.10;;;2.77;;
22357;SDS011;11346;50.150;8.150;2023-04-24T08:30:20;3.70;;;3.00;;
22357;SDS011;11346;50.150;8.150;2023-04-24T08:32:49;5.17;;;2.60;;
22357;SDS011;11346;50.150;8.150;2023-04-24T08:35:16;2.60;;;2.40;;
22357;SDS011;11346;50.150;8.150;2023-04-24T08:37:44;2.50;;;2.30;;
22357;SDS011;11346;50.150;8.150;2023-04-24T08:40:12;2.60;;;2.40;;
22357;SDS011;11346;50.150;8.150;2023-04-24T08:42:40;2.73;;;2.53;;
22357;SDS011;11346;50.150;8.150;2023-04-24T08:45:09;2.47;;;2.27;;
22357;SDS011;11346;50.150;8.150;2023-04-24T08:47:36;2.83;;;2.60;;
22357;SDS011;11346;50.150;8.150;2023-04-24T08:50:06;2.40;;;2.20;;
22357;SDS011;11346;50.150;8.150;2023-04-24T08:52:33;2.60;;;2.40;;
22357;SDS011;11346;50.150;8.150;2023-04-24T08:55:01;2.23;;;2.03;;
22357;SDS011;11346;50.150;8.150;2023-04-24T08:57:28;3.13;;;2.20;;
22357;SDS011;11346;50.150;8.150;2023-04-24T08:59:56;2.30;;;2.20;;
22357;SDS011;11346;50.150;8.150;2023-04-24T09:02:24;3.30;;;2.30;;
22357;SDS011;11346;50.150;8.150;2023-04-24T09:04:52;2.60;;;2.40;;
22357;SDS011;11346;50.150;8.150;2023-04-24T09:07:20;2.40;;;2.20;;
22357;SDS011;11346;50.150;8.150;2023-04-24T09:09:49;2.83;;;2.20;;
22357;SDS011;11346;50.150;8.150;2023-04-24T09:12:17;2.70;;;2.10;;
22357;SDS011;11346;50.150;8.150;2023-04-24T09:14:44;1.97;;;1.87;;
22357;SDS011;11346;50.150;8.150;2023-04-24T09:17:11;2.03;;;1.90;;
22357;SDS011;11346;50.150;8.150;2023-04-24T09:19:39;3.73;;;3.00;;
22357;SDS011;11346;50.150;8.150;2023-04-24T09:22:06;2.53;;;2.33;;
22357;SDS011;11346;50.150;8.150;2023-04-24T09:24:35;2.10;;;2.00;;
22357;SDS011;11346;50.150;8.150;2023-04-24T09:27:02;3.83;;;2.23;;
22357;SDS011;11346;50.150;8.150;2023-04-24T09:29:30;2.63;;;1.90;;
22357;SDS011;11346;50.150;8.150;2023-04-24T09:31:58;1.70;;;1.60;;
22357;SDS011;11346;50.150;8.150;2023-04-24T09:34:25;3.87;;;2.10;;
22357;SDS011;11346;50.150;8.150;2023-04-24T09:36:53;2.10;;;2.00;;
22357;SDS011;11346;50.150;8.150;2023-04-24T09:39:20;1.93;;;1.83;;
22357;SDS011;11346;50.150;8.150;2023-04-24T09:41:49;1.97;;;1.77;;
22357;SDS011;11346;50.150;8.150;2023-04-24T09:44:17;2.43;;;2.23;;
22357;SDS011;11346;50.150;8.150;2023-04-24T09:46:49;3.07;;;2.37;;
22357;SDS011;11346;50.150;8.150;2023-04-24T09:49:16;2.43;;;2.23;;
22357;SDS011;11346;50.150;8.150;2023-04-24T09:51:46;2.07;;;1.80;;
22357;SDS011;11346;50.150;8.150;2023-04-24T09:54:14;2.20;;;2.10;;
22357;SDS011;11346;50.150;8.150;2023-04-24T09:56:45;1.90;;;1.80;;
22357;SDS011;11346;50.150;8.150;2023-04-24T09:59:14;1.90;;;1.80;;
22357;SDS011;11346;50.150;8.150;2023-04-24T10:01:41;3.17;;;1.87;;
22357;SDS011;11346;50.150;8.150;2023-04-24T10:04:16;1.97;;;1.87;;
22357;SDS011;11346;50.150;8.150;2023-04-24T10:06:44;2.23;;;1.73;;
22357;SDS011;11346;50.150;8.150;2023-04-24T10:09:11;1.80;;;1.70;;
22357;SDS011;11346;50.150;8.150;2023-04-24T10:11:40;2.13;;;2.03;;
22357;SDS011;11346;50.150;8.150;2023-04-24T10:14:08;2.10;;;2.00;;
22357;SDS011;11346;50.150;8.150;2023-04-24T10:16:38;3.13;;;2.17;;
22357;SDS011;11346;50.150;8.150;2023-04-24T10:19:06;2.30;;;2.10;;
22357;SDS011;11346;50.150;8.150;2023-04-24T10:21:34;2.13;;;2.00;;
22357;SDS011;11346;50.150;8.150;2023-04-24T10:24:02;2.87;;;2.10;;
22357;SDS011;11346;50.150;8.150;2023-04-24T10:26:30;2.87;;;1.97;;
22357;SDS011;11346;50.150;8.150;2023-04-24T10:28:58;2.23;;;2.13;;
22357;SDS011;11346;50.150;8.150;2023-04-24T10:31:25;2.20;;;1.70;;
22357;SDS011;11346;50.150;8.150;2023-04-24T10:33:54;1.80;;;1.70;;
22357;SDS011;11346;50.150;8.150;2023-04-24T10:36:21;2.30;;;2.10;;
22357;SDS011;11346;50.150;8.150;2023-04-24T10:38:51;2.17;;;2.07;;
22357;SDS011;11346;50.150;8.150;2023-04-24T10:41:19;1.97;;;1.77;;
22357;SDS011;11346;50.150;8.150;2023-04-24T10:43:48;2.60;;;2.10;;
22357;SDS011;11346;50.150;8.150;2023-04-24T10:46:16;2.63;;;2.43;;
22357;SDS011;11346;50.150;8.150;2023-04-24T10:48:51;2.20;;;2.10;;
22357;SDS011;11346;50.150;8.150;2023-04-24T10:51:21;2.50;;;2.30;;
22357;SDS011;11346;50.150;8.150;2023-04-24T10:53:49;2.90;;;2.40;;
22357;SDS011;11346;50.150;8.150;2023-04-24T10:56:16;2.30;;;2.10;;
22357;SDS011;11346;50.150;8.150;2023-04-24T10:58:44;2.60;;;2.40;;
22357;SDS011;11346;50.150;8.150;2023-04-24T11:01:22;4.03;;;2.50;;
22357;SDS011;11346;50.150;8.150;2023-04-24T11:03:53;2.40;;;2.20;;
22357;SDS011;11346;50.150;8.150;2023-04-24T11:06:29;2.77;;;2.57;;
22357;SDS011;11346;50.150;8.150;2023-04-24T11:09:01;2.80;;;2.60;;
22357;SDS011;11346;50.150;8.150;2023-04-24T11:11:29;3.60;;;2.33;;
22357;SDS011;11346;50.150;8.150;2023-04-24T11:14:06;3.07;;;2.30;;
22357;SDS011;11346;50.150;8.150;2023-04-24T11:16:38;2.40;;;2.20;;
22357;SDS011;11346;50.150;8.150;2023-04-24T11:19:06;3.73;;;2.30;;
22357;SDS011;11346;50.150;8.150;2023-04-24T11:21:42;3.30;;;2.10;;
22357;SDS011;11346;50.150;8.150;2023-04-24T11:26:51;2.47;;;2.30;;
22357;SDS011;11346;50.150;8.150;2023-04-24T11:29:19;2.73;;;2.40;;
22357;SDS011;11346;50.150;8.150;2023-04-24T11:31:46;3.37;;;2.40;;
22357;SDS011;11346;50.150;8.150;2023-04-24T11:34:17;2.83;;;2.50;;
22357;SDS011;11346;50.150;8.150;2023-04-24T11:36:46;2.63;;;2.43;;
22357;SDS011;11346;50.150;8.150;2023-04-24T11:39:13;3.00;;;2.63;;
22357;SDS011;11346;50.150;8.150;2023-04-24T11:41:40;3.23;;;2.93;;
22357;SDS011;11346;50.150;8.150;2023-04-24T11:44:08;3.27;;;2.90;;
22357;SDS011;11346;50.150;8.150;2023-04-24T11:46:35;4.60;;;3.40;;
22357;SDS011;11346;50.150;8.150;2023-04-24T11:49:05;3.60;;;3.07;;
22357;SDS011;11346;50.150;8.150;2023-04-24T11:51:32;6.47;;;3.20;;
22357;SDS011;11346;50.150;8.150;2023-04-24T11:54:00;3.90;;;3.53;;
22357;SDS011;11346;50.150;8.150;2023-04-24T11:56:28;3.27;;;2.87;;
22357;SDS011;11346;50.150;8.150;2023-04-24T11:58:55;4.73;;;3.10;;
22357;SDS011;11346;50.150;8.150;2023-04-24T12:01:22;3.57;;;2.73;;
22357;SDS011;11346;50.150;8.150;2023-04-24T12:03:49;4.03;;;3.57;;
22357;SDS011;11346;50.150;8.150;2023-04-24T12:06:17;5.63;;;3.80;;
22357;SDS011;11346;50.150;8.150;2023-04-24T12:08:47;5.73;;;3.87;;
22357;SDS011;11346;50.150;8.150;2023-04-24T12:11:16;4.90;;;4.33;;
22357;SDS011;11346;50.150;8.150;2023-04-24T12:13:46;3.93;;;3.30;;
22357;SDS011;11346;50.150;8.150;2023-04-24T12:16:13;4.50;;;3.67;;
22357;SDS011;11346;50.150;8.150;2023-04-24T12:18:43;5.47;;;3.53;;
22357;SDS011;11346;50.150;8.150;2023-04-24T12:21:17;5.53;;;3.90;;
22357;SDS011;11346;50.150;8.150;2023-04-24T12:23:45;3.97;;;3.57;;
22357;SDS011;11346;50.150;8.150;2023-04-24T12:26:12;5.77;;;4.30;;
22357;SDS011;11346;50.150;8.150;2023-04-24T12:28:41;6.13;;;3.80;;
22357;SDS011;11346;50.150;8.150;2023-04-24T12:31:08;6.20;;;3.97;;
22357;SDS011;11346;50.150;8.150;2023-04-24T12:33:35;3.80;;;3.33;;
22357;SDS011;11346;50.150;8.150;2023-04-24T12:36:03;5.87;;;4.07;;
22357;SDS011;11346;50.150;8.150;2023-04-24T12:38:31;6.03;;;4.07;;
22357;SDS011;11346;50.150;8.150;2023-04-24T12:41:05;6.40;;;3.63;;
22357;SDS011;11346;50.150;8.150;2023-04-24T12:43:32;5.53;;;3.63;;
22357;SDS011;11346;50.150;8.150;2023-04-24T12:46:01;5.43;;;3.03;;
22357;SDS011;11346;50.150;8.150;2023-04-24T12:48:28;4.40;;;3.83;;
22357;SDS011;11346;50.150;8.150;2023-04-24T12:50:56;4.23;;;3.43;;
22357;SDS011;11346;50.150;8.150;2023-04-24T12:53:26;4.63;;;3.67;;
22357;SDS011;11346;50.150;8.150;2023-04-24T12:55:55;9.07;;;3.67;;
22357;SDS011;11346;50.150;8.150;2023-04-24T12:58:22;5.03;;;3.80;;
22357;SDS011;11346;50.150;8.150;2023-04-24T13:00:49;4.30;;;3.90;;
22357;SDS011;11346;50.150;8.150;2023-04-24T13:03:18;5.70;;;3.50;;
22357;SDS011;11346;50.150;8.150;2023-04-24T13:05:47;4.20;;;3.60;;
22357;SDS011;11346;50.150;8.150;2023-04-24T13:08:14;4.07;;;3.17;;
22357;SDS011;11346;50.150;8.150;2023-04-24T13:10:41;3.80;;;3.20;;
22357;SDS011;11346;50.150;8.150;2023-04-24T13:13:08;5.17;;;3.77;;
22357;SDS011;11346;50.150;8.150;2023-04-24T13:15:35;4.73;;;3.40;;
22357;SDS011;11346;50.150;8.150;2023-04-24T13:18:02;3.87;;;3.53;;
22357;SDS011;11346;50.150;8.150;2023-04-24T13:20:31;4.10;;;3.70;;
22357;SDS011;11346;50.150;8.150;2023-04-24T13:22:58;8.13;;;4.00;;
22357;SDS011;11346;50.150;8.150;2023-04-24T13:25:25;5.03;;;4.17;;
22357;SDS011;11346;50.150;8.150;2023-04-24T13:27:52;6.70;;;4.33;;
22357;SDS011;11346;50.150;8.150;2023-04-24T13:30:20;7.23;;;3.90;;
22357;SDS011;11346;50.150;8.150;2023-04-24T13:32:47;4.77;;;3.80;;
22357;SDS011;11346;50.150;8.150;2023-04-24T13:35:14;4.37;;;3.70;;
22357;SDS011;11346;50.150;8.150;2023-04-24T13:37:42;7.50;;;4.00;;
22357;SDS011;11346;50.150;8.150;2023-04-24T13:40:10;5.97;;;3.70;;
22357;SDS011;11346;50.150;8.150;2023-04-24T13:42:37;4.37;;;3.97;;
22357;SDS011;11346;50.150;8.150;2023-04-24T13:45:04;6.03;;;3.87;;
22357;SDS011;11346;50.150;8.150;2023-04-24T13:47:31;6.67;;;3.93;;
22357;SDS011;11346;50.150;8.150;2023-04-24T13:49:58;6.63;;;4.13;;
22357;SDS011;11346;50.150;8.150;2023-04-24T13:52:25;4.10;;;3.67;;
22357;SDS011;11346;50.150;8.150;2023-04-24T13:54:54;5.00;;;3.50;;
22357;SDS011;11346;50.150;8.150;2023-04-24T13:57:21;5.93;;;3.77;;
22357;SDS011;11346;50.150;8.150;2023-04-24T13:59:48;5.27;;;3.23;;
22357;SDS011;11346;50.150;8.150;2023-04-24T14:02:15;6.47;;;3.43;;
22357;SDS011;11346;50.150;8.150;2023-04-24T14:04:42;4.83;;;3.60;;
22357;SDS011;11346;50.150;8.150;2023-04-24T14:07:09;6.10;;;3.50;;
22357;SDS011;11346;50.150;8.150;2023-04-24T14:09:36;4.37;;;3.30;;
22357;SDS011;11346;50.150;8.150;2023-04-24T14:12:05;7.60;;;3.40;;
22357;SDS011;11346;50.150;8.150;2023-04-24T14:14:32;5.23;;;2.90;;
22357;SDS011;11346;50.150;8.150;2023-04-24T14:17:00;5.23;;;3.30;;
22357;SDS011;11346;50.150;8.150;2023-04-24T14:19:27;9.93;;;3.27;;
22357;SDS011;11346;50.150;8.150;2023-04-24T14:21:54;5.00;;;3.30;;
22357;SDS011;11346;50.150;8.150;2023-04-24T14:24:23;4.90;;;3.30;;
22357;SDS011;11346;50.150;8.150;2023-04-24T14:26:50;5.07;;;3.13;;
22357;SDS011;11346;50.150;8.150;2023-04-24T14:29:18;7.13;;;3.33;;
22357;SDS011;11346;50.150;8.150;2023-04-24T14:31:45;5.47;;;3.23;;
22357;SDS011;11346;50.150;8.150;2023-04-24T14:34:13;3.90;;;3.40;;
22357;SDS011;11346;50.150;8.150;2023-04-24T14:36:40;5.50;;;3.23;;
22357;SDS011;11346;50.150;8.150;2023-04-24T14:39:07;4.43;;;3.40;;
22357;SDS011;11346;50.150;8.150;2023-04-24T14:41:35;6.83;;;3.77;;
22357;SDS011;11346;50.150;8.150;2023-04-24T14:44:04;5.83;;;3.60;;
22357;SDS011;11346;50.150;8.150;2023-04-24T14:46:32;3.73;;;3.07;;
22357;SDS011;11346;50.150;8.150;2023-04-24T14:48:59;3.57;;;3.03;;
22357;SDS011;11346;50.150;8.150;2023-04-24T14:51:27;3.73;;;3.40;;
22357;SDS011;11346;50.150;8.150;2023-04-24T14:53:54;6.53;;;3.73;;